Time;durP1;ratioP1;P1;durP2;ratioP2;P2;SDS_P1;SDS_P2;PMS_P1;PMS_P2;Temp;Humidity;BMP_temperature;BMP_pressure;BME280_temperature;BME280_humidity;BME280_pressure;Samples;Min_cycle;Max_cycle;Signal;HPM_P1;HPM_P2
2023/03/30 00:01:21;;;;;;;3.53;1.90;;;;;;;19.33;45.90;96652.63;10374258;28;20049;-72
2023/03/30 00:06:41;;;;;;;2.70;1.80;;;;;;;19.33;45.77;96649.94;10388495;28;20046;-72
2023/03/30 00:12:02;;;;;;;3.42;1.90;;;;;;;19.32;45.69;96648.31;10359970;28;20465;-72
2023/03/30 00:17:21;;;;;;;3.08;1.80;;;;;;;19.31;45.81;96652.16;10388271;28;20061;-72
2023/03/30 00:22:42;;;;;;;3.17;1.83;;;;;;;19.29;45.81;96661.72;10372965;28;20506;-72
2023/03/30 00:28:01;;;;;;;2.92;1.90;;;;;;;19.29;45.92;96656.31;10366347;28;20104;-72
2023/03/30 00:33:20;;;;;;;2.50;1.80;;;;;;;19.28;45.81;96652.81;10359426;28;20053;-72
2023/03/30 00:38:40;;;;;;;2.67;1.70;;;;;;;19.27;45.79;96661.25;10387666;28;20410;-72
2023/03/30 00:44:02;;;;;;;4.28;1.70;;;;;;;19.26;45.91;96665.06;10372523;28;20042;-72
2023/03/30 00:49:22;;;;;;;2.85;1.90;;;;;;;19.24;45.82;96662.69;10372261;28;20041;-72
2023/03/30 00:54:41;;;;;;;2.70;1.63;;;;;;;19.24;45.70;96642.97;10358419;28;20057;-72
2023/03/30 01:00:01;;;;;;;2.55;1.90;;;;;;;19.23;45.70;96633.28;10358414;28;20195;-72
2023/03/30 01:05:22;;;;;;;3.72;2.13;;;;;;;19.22;45.83;96620.91;10387400;28;20478;-72
2023/03/30 01:10:45;;;;;;;2.10;1.80;;;;;;;19.21;45.71;96613.91;10372248;28;20499;-72
2023/03/30 01:16:08;;;;;;;1.63;1.50;;;;;;;19.20;45.73;96618.53;10372016;28;20038;-72
2023/03/30 01:21:47;;;;;;;2.38;1.60;;;;;;;19.19;45.82;96606.16;10371789;28;20050;-72
2023/03/30 01:27:22;;;;;;;2.65;1.70;;;;;;;19.17;45.74;96608.41;10382331;28;20077;-72
2023/03/30 01:33:18;;;;;;;2.28;1.60;;;;;;;19.16;45.86;96607.59;10373336;28;20050;-72
2023/03/30 01:39:02;;;;;;;1.88;1.33;;;;;;;19.16;45.82;96593.31;10394115;28;20042;-72
2023/03/30 01:44:33;;;;;;;2.50;1.58;;;;;;;19.15;45.91;96575.50;10379614;28;20509;-72
2023/03/30 01:50:10;;;;;;;2.25;1.58;;;;;;;19.13;45.83;96565.06;10364945;28;20042;-72
2023/03/30 01:55:45;;;;;;;3.40;1.60;;;;;;;19.11;45.71;96559.19;10365194;28;20046;-72
2023/03/30 02:01:06;;;;;;;2.28;1.50;;;;;;;19.11;45.82;96543.00;10393251;28;20099;-72
2023/03/30 02:06:42;;;;;;;1.70;1.60;;;;;;;19.10;45.88;96559.50;10364583;28;20041;-72
2023/03/30 02:12:01;;;;;;;2.20;1.67;;;;;;;19.10;45.77;96551.41;10378168;28;20053;-72
2023/03/30 02:17:22;;;;;;;2.00;1.40;;;;;;;19.09;45.93;96537.13;10377949;28;20042;-72
2023/03/30 02:22:42;;;;;;;1.63;1.40;;;;;;;19.08;45.75;96535.53;10350004;28;20046;-72
2023/03/30 02:28:02;;;;;;;2.40;1.70;;;;;;;19.06;45.85;96535.06;10357055;28;20054;-72
2023/03/30 02:33:49;;;;;;;1.70;1.40;;;;;;;19.07;45.80;96560.97;10377237;28;20042;-72
2023/03/30 02:39:28;;;;;;;1.60;1.25;;;;;;;19.05;45.81;96536.19;10363142;28;20054;-72
2023/03/30 02:45:19;;;;;;;3.78;1.50;;;;;;;19.05;45.90;96519.19;10349237;28;20506;-72
2023/03/30 02:50:48;;;;;;;1.50;1.40;;;;;;;19.03;46.00;96464.72;10376020;28;20450;-72
2023/03/30 02:56:36;;;;;;;2.00;1.45;;;;;;;19.02;45.86;96461.25;10391195;28;20049;-72
2023/03/30 03:02:03;;;;;;;2.05;1.50;;;;;;;19.01;45.83;96477.78;10376014;28;20042;-72
2023/03/30 03:07:23;;;;;;;2.00;1.42;;;;;;;19.00;45.92;96451.91;10375898;28;20038;-72
2023/03/30 03:12:44;;;;;;;1.85;1.42;;;;;;;19.01;45.94;96458.88;10362086;28;20050;-72
2023/03/30 03:18:04;;;;;;;1.40;1.20;;;;;;;18.99;45.96;96439.50;10362189;28;20042;-72
2023/03/30 03:23:24;;;;;;;1.95;1.42;;;;;;;18.98;45.95;96438.72;10375523;28;20096;-72
2023/03/30 03:28:47;;;;;;;1.83;1.40;;;;;;;18.96;46.02;96422.06;10365845;28;20077;-72
2023/03/30 03:34:07;;;;;;;2.33;1.35;;;;;;;18.96;45.85;96413.97;10374706;28;20041;-72
2023/03/30 03:39:51;;;;;;;1.95;1.60;;;;;;;18.95;46.01;96401.59;10364273;28;20041;-72
2023/03/30 03:45:11;;;;;;;1.92;1.15;;;;;;;18.95;45.90;96407.78;10374806;28;20128;-72
2023/03/30 03:50:44;;;;;;;1.70;1.45;;;;;;;18.93;45.94;96395.72;10373609;28;20048;-72
2023/03/30 03:56:04;;;;;;;1.42;1.33;;;;;;;18.92;45.82;96388.75;10386996;28;20050;-72
2023/03/30 04:01:24;;;;;;;2.38;1.40;;;;;;;18.92;46.00;96375.28;10373759;28;20046;-72
2023/03/30 04:06:43;;;;;;;1.90;1.30;;;;;;;18.90;45.96;96374.81;10359035;28;20072;-72
2023/03/30 04:12:03;;;;;;;1.25;1.13;;;;;;;18.90;45.98;96388.31;10345921;28;20549;-72
2023/03/30 04:17:49;;;;;;;1.80;1.40;;;;;;;18.89;45.76;96370.53;10366397;28;20046;-72
2023/03/30 04:23:32;;;;;;;1.98;1.27;;;;;;;18.88;45.83;96366.25;10364675;28;20045;-72
2023/03/30 04:29:10;;;;;;;1.38;1.15;;;;;;;18.87;45.75;96370.06;10355035;28;20049;-72
2023/03/30 04:34:30;;;;;;;1.30;1.20;;;;;;;18.86;45.91;96371.19;10358700;28;20038;-72
2023/03/30 04:40:25;;;;;;;1.55;1.10;;;;;;;18.87;45.83;96361.97;10306605;28;20065;-73
2023/03/30 04:45:57;;;;;;;1.30;1.20;;;;;;;18.86;46.34;96366.56;10374168;28;20092;-72
2023/03/30 04:51:36;;;;;;;1.38;1.27;;;;;;;18.87;46.38;96368.16;10363988;28;20038;-72
2023/03/30 04:56:58;;;;;;;1.50;1.30;;;;;;;18.89;46.58;96373.22;10372778;28;20048;-73
2023/03/30 05:02:53;;;;;;;1.38;1.02;;;;;;;18.89;46.64;96379.41;10315136;28;20054;-72
2023/03/30 05:08:33;;;;;;;1.27;1.05;;;;;;;18.90;46.47;96386.38;10379827;28;20042;-72
2023/03/30 05:14:13;;;;;;;2.55;1.20;;;;;;;18.92;46.41;96370.66;10367043;28;20062;-72
2023/03/30 05:19:49;;;;;;;2.00;1.10;;;;;;;18.93;46.64;96376.84;10356654;28;20042;-72
2023/03/30 05:25:18;;;;;;;2.08;1.30;;;;;;;18.94;46.23;96367.63;10353563;28;20050;-72
2023/03/30 05:31:05;;;;;;;2.15;1.00;;;;;;;18.97;46.25;96380.44;10356833;28;20093;-72
2023/03/30 05:36:38;;;;;;;1.55;1.17;;;;;;;18.97;46.25;96375.06;10380050;28;20042;-72
2023/03/30 05:42:03;;;;;;;1.20;1.10;;;;;;;19.00;46.16;96382.50;10377414;28;20046;-72
2023/03/30 05:47:34;;;;;;;2.03;1.00;;;;;;;19.02;45.95;96374.88;10350761;28;20038;-72
2023/03/30 05:53:15;;;;;;;1.48;1.10;;;;;;;19.04;45.94;96369.91;10378459;28;20092;-72
2023/03/30 05:59:04;;;;;;;2.38;0.93;;;;;;;19.07;46.03;96371.97;10374185;28;20069;-72
2023/03/30 06:04:35;;;;;;;1.00;0.90;;;;;;;19.10;46.17;96371.28;10366734;28;20406;-72
2023/03/30 06:09:58;;;;;;;2.15;0.95;;;;;;;19.12;45.92;96369.06;10364638;28;20095;-71
2023/03/30 06:15:21;;;;;;;1.20;1.00;;;;;;;19.16;45.83;96386.16;10378674;28;20100;-72
2023/03/30 06:20:57;;;;;;;1.70;1.10;;;;;;;19.18;45.53;96380.44;10379620;28;20422;-72
2023/03/30 06:26:16;;;;;;;1.50;1.30;;;;;;;19.20;45.53;96380.13;10375732;28;20429;-72
2023/03/30 06:31:37;;;;;;;1.15;1.02;;;;;;;19.23;45.57;96388.34;10377470;28;20046;-72
2023/03/30 06:37:16;;;;;;;1.23;1.13;;;;;;;19.27;45.61;96399.28;10391726;28;20041;-72
2023/03/30 06:42:36;;;;;;;1.45;1.08;;;;;;;19.29;45.26;96405.13;10349777;28;20054;-72
2023/03/30 06:48:22;;;;;;;1.30;1.10;;;;;;;19.33;45.36;96397.94;10349483;28;20144;-72
2023/03/30 06:53:56;;;;;;;1.33;1.00;;;;;;;19.35;45.41;96393.00;10362947;28;20406;-72
2023/03/30 06:59:16;;;;;;;1.10;1.00;;;;;;;19.38;45.29;96386.91;10376298;28;20045;-72
2023/03/30 07:04:55;;;;;;;1.50;1.17;;;;;;;19.42;45.29;96387.84;10344155;28;20081;-72
2023/03/30 07:10:25;;;;;;;1.17;1.08;;;;;;;19.44;45.18;96395.59;10363496;28;20048;-72
2023/03/30 07:15:46;;;;;;;1.40;1.00;;;;;;;19.47;45.26;96395.75;10389567;28;20050;-72
2023/03/30 07:21:05;;;;;;;1.10;0.95;;;;;;;19.50;45.30;96400.50;10375679;28;20045;-72
2023/03/30 07:26:30;;;;;;;1.42;1.20;;;;;;;19.54;45.16;96411.41;10359767;28;20053;-72
2023/03/30 07:31:59;;;;;;;1.15;1.02;;;;;;;19.58;45.20;96412.31;10361342;28;20041;-72
2023/03/30 07:37:19;;;;;;;1.10;1.00;;;;;;;19.60;45.33;96420.09;10361377;28;20050;-72
2023/03/30 07:42:40;;;;;;;1.35;1.20;;;;;;;19.64;45.26;96415.59;10361714;28;20133;-75
2023/03/30 07:48:00;;;;;;;1.20;1.10;;;;;;;19.66;45.18;96410.63;10374565;28;20052;-75
2023/03/30 07:53:21;;;;;;;1.40;1.30;;;;;;;19.69;45.21;96416.16;10374252;28;20037;-75
2023/03/30 07:58:42;;;;;;;1.55;1.10;;;;;;;19.72;45.13;96415.53;10347328;28;20120;-75
2023/03/30 08:04:03;;;;;;;1.10;1.00;;;;;;;19.75;45.05;96405.97;10374113;28;20046;-75
2023/03/30 08:09:27;;;;;;;1.00;0.90;;;;;;;19.78;45.15;96391.00;10360559;28;20041;-75
2023/03/30 08:14:47;;;;;;;1.00;0.90;;;;;;;19.81;44.96;96391.09;10388314;28;20042;-75
2023/03/30 08:20:10;;;;;;;1.55;1.00;;;;;;;19.84;45.04;96384.25;10373613;28;20046;-76
2023/03/30 08:25:30;;;;;;;1.00;0.90;;;;;;;19.87;44.80;96370.06;10373690;28;20069;-75
2023/03/30 08:30:49;;;;;;;1.75;1.00;;;;;;;19.89;44.97;96367.81;10306004;28;20070;-76
2023/03/30 08:36:11;;;;;;;1.85;1.20;;;;;;;19.93;45.08;96358.72;10305785;28;20097;-75
2023/03/30 08:41:42;;;;;;;1.23;1.13;;;;;;;19.95;44.90;96348.34;10291841;28;20054;-75
2023/03/30 08:47:05;;;;;;;1.17;1.08;;;;;;;19.99;45.11;96339.53;10305559;28;20047;-75
2023/03/30 08:52:25;;;;;;;1.48;1.00;;;;;;;20.01;45.07;96321.06;10305593;28;20046;-75
2023/03/30 08:58:00;;;;;;;1.20;1.10;;;;;;;20.04;45.05;96325.81;10305361;28;20117;-75
2023/03/30 09:03:40;;;;;;;1.55;1.17;;;;;;;20.07;44.97;96325.13;10305229;28;20047;-75
2023/03/30 09:09:00;;;;;;;1.20;1.05;;;;;;;20.08;45.06;96310.47;10318899;28;20415;-76
2023/03/30 09:14:39;;;;;;;1.42;1.10;;;;;;;20.10;44.89;96297.41;10318744;28;20411;-74
2023/03/30 09:20:11;;;;;;;1.25;1.00;;;;;;;20.12;44.82;96293.22;10318728;28;20042;-75
2023/03/30 09:25:40;;;;;;;1.58;1.20;;;;;;;20.15;44.73;96305.31;10318639;28;20120;-76
2023/03/30 09:31:03;;;;;;;2.53;1.30;;;;;;;20.20;44.70;96315.09;10305727;28;20050;-76
2023/03/30 09:36:30;;;;;;;1.02;0.90;;;;;;;20.20;44.67;96310.47;10304804;28;20101;-75
2023/03/30 09:42:03;;;;;;;2.85;1.17;;;;;;;20.24;44.67;96324.09;10304904;28;20055;-75
2023/03/30 09:47:28;;;;;;;1.55;1.25;;;;;;;20.25;44.63;96333.81;10318216;28;20047;-75
2023/03/30 09:52:58;;;;;;;0.98;0.77;;;;;;;20.28;44.51;96316.88;10305573;28;20385;-75
2023/03/30 09:58:20;;;;;;;1.88;0.90;;;;;;;20.29;44.65;96313.06;10325303;28;20479;-75
2023/03/30 10:03:41;;;;;;;1.30;0.90;;;;;;;20.30;44.63;96299.16;10311349;28;20047;-75
2023/03/30 10:09:04;;;;;;;1.17;1.00;;;;;;;20.32;44.54;96315.84;10311377;28;20042;-75
2023/03/30 10:14:32;;;;;;;0.98;0.88;;;;;;;20.36;44.57;96340.31;10310791;28;20097;-75
2023/03/30 10:19:54;;;;;;;1.17;1.00;;;;;;;20.37;44.58;96366.25;10311930;28;20050;-75
2023/03/30 10:25:20;;;;;;;1.17;1.05;;;;;;;20.39;44.52;96392.97;10310707;28;20057;-75
2023/03/30 10:30:39;;;;;;;0.95;0.85;;;;;;;20.42;44.62;96397.69;10297997;28;20045;-75
2023/03/30 10:35:59;;;;;;;1.00;0.90;;;;;;;20.42;44.60;96406.59;10296707;28;20039;-75
2023/03/30 10:41:21;;;;;;;0.82;0.80;;;;;;;20.44;44.38;96415.16;10310145;28;20053;-75
2023/03/30 10:46:41;;;;;;;1.75;0.90;;;;;;;20.46;44.50;96421.00;10296299;28;20046;-75
2023/03/30 10:52:30;;;;;;;1.25;1.15;;;;;;;20.48;44.41;96431.50;10296110;28;20174;-75
2023/03/30 10:58:09;;;;;;;1.67;1.13;;;;;;;20.50;44.61;96431.94;10283445;28;20061;-75
2023/03/30 11:03:31;;;;;;;1.00;0.90;;;;;;;20.52;44.41;96433.22;10323091;28;20534;-75
2023/03/30 11:08:51;;;;;;;1.83;1.27;;;;;;;20.53;44.43;96425.88;10295968;28;20090;-75
2023/03/30 11:14:18;;;;;;;1.77;1.10;;;;;;;20.57;44.63;96423.28;10294913;28;20051;-75
2023/03/30 11:19:51;;;;;;;1.77;1.05;;;;;;;20.58;44.84;96425.66;10308527;28;20039;-74
2023/03/30 11:25:21;;;;;;;12.00;4.28;;;;;;;20.60;45.30;96404.47;10279521;28;20054;-74
2023/03/30 11:30:42;;;;;;;7.43;2.50;;;;;;;20.62;46.29;96396.00;10305187;28;20034;-74
2023/03/30 11:36:17;;;;;;;4.82;2.00;;;;;;;20.64;46.67;96386.44;10329551;28;20053;-74
2023/03/30 11:41:44;;;;;;;4.47;1.60;;;;;;;20.66;47.30;96395.00;10349131;28;20458;-72
2023/03/30 11:47:15;;;;;;;6.40;1.90;;;;;;;20.69;49.08;96388.88;10347800;28;20038;-71
2023/03/30 11:52:46;;;;;;;5.40;1.77;;;;;;;20.71;49.03;96381.22;10347623;28;20054;-72
2023/03/30 11:58:26;;;;;;;3.97;1.35;;;;;;;20.73;49.33;96373.53;10348723;28;20093;-72
2023/03/30 12:03:49;;;;;;;3.33;1.40;;;;;;;20.73;48.91;96370.81;10347243;28;20046;-72
2023/03/30 12:09:33;;;;;;;2.35;1.20;;;;;;;20.73;48.82;96360.00;10333438;28;20046;-73
2023/03/30 12:15:14;;;;;;;3.63;1.20;;;;;;;20.76;48.65;96336.06;10346756;28;20458;-73
2023/03/30 12:20:52;;;;;;;2.92;1.23;;;;;;;20.73;48.52;96313.97;10333095;28;20045;-73
2023/03/30 12:26:17;;;;;;;1.20;1.02;;;;;;;20.74;48.05;96304.75;10319795;28;20042;-72
2023/03/30 12:31:54;;;;;;;3.80;1.30;;;;;;;20.75;47.96;96305.53;10347239;28;20049;-72
2023/03/30 12:37:40;;;;;;;3.92;1.20;;;;;;;20.76;48.23;96300.88;10348512;28;20050;-72
2023/03/30 12:43:15;;;;;;;1.42;1.00;;;;;;;20.74;47.95;96285.78;10320476;28;20053;-72
2023/03/30 12:48:47;;;;;;;2.38;1.23;;;;;;;20.76;47.79;96284.66;10332789;28;20151;-72
2023/03/30 12:54:09;;;;;;;4.85;1.02;;;;;;;20.76;47.78;96265.69;10347211;28;20073;-72
2023/03/30 12:59:32;;;;;;;3.22;1.30;;;;;;;20.77;47.74;96259.94;10347914;28;20434;-72
2023/03/30 13:04:51;;;;;;;3.72;1.00;;;;;;;20.77;47.60;96251.81;10335861;28;20047;-71
2023/03/30 13:10:29;;;;;;;2.33;1.20;;;;;;;20.77;47.72;96229.38;10334248;28;20513;-71
2023/03/30 13:15:56;;;;;;;1.90;1.07;;;;;;;20.76;47.63;96215.06;10346335;28;20509;-72
2023/03/30 13:21:19;;;;;;;1.23;1.02;;;;;;;20.77;47.55;96207.72;10332686;28;20545;-72
2023/03/30 13:26:42;;;;;;;1.45;0.90;;;;;;;20.76;47.51;96215.06;10336213;28;20399;-72
2023/03/30 13:32:29;;;;;;;2.53;1.02;;;;;;;20.74;47.63;96204.59;10371759;28;20482;-71
2023/03/30 13:37:48;;;;;;;2.47;0.98;;;;;;;20.76;47.61;96193.41;10306712;28;20062;-72
2023/03/30 13:43:49;;;;;;;1.10;1.00;;;;;;;20.74;47.58;96172.09;10353260;28;20047;-72
2023/03/30 13:49:32;;;;;;;1.90;0.80;;;;;;;20.74;47.45;96196.47;10250764;28;20065;-72
2023/03/30 13:54:51;;;;;;;2.97;0.90;;;;;;;20.75;47.63;96183.72;10352775;28;20451;-73
2023/03/30 14:00:32;;;;;;;1.00;0.90;;;;;;;20.74;47.69;96177.53;10338928;28;20046;-72
2023/03/30 14:05:53;;;;;;;1.42;0.90;;;;;;;20.72;47.50;96179.78;10338080;28;20054;-72
2023/03/30 14:11:15;;;;;;;1.23;0.85;;;;;;;20.72;47.52;96193.31;10324206;28;20410;-72
2023/03/30 14:16:37;;;;;;;1.13;0.90;;;;;;;20.70;47.60;96182.06;10323902;28;20061;-72
2023/03/30 14:22:15;;;;;;;2.83;0.82;;;;;;;20.70;47.53;96178.56;10337342;28;20050;-72
2023/03/30 14:27:37;;;;;;;3.33;0.90;;;;;;;20.70;47.54;96181.28;10318125;28;20050;-72
2023/03/30 14:33:10;;;;;;;1.63;0.80;;;;;;;20.69;47.42;96172.34;10323537;28;20043;-72
2023/03/30 14:38:47;;;;;;;3.30;1.30;;;;;;;20.67;47.61;96174.63;10364893;28;20052;-72
2023/03/30 14:44:10;;;;;;;1.10;0.93;;;;;;;20.66;47.80;96146.00;10337281;28;20042;-75
2023/03/30 14:49:30;;;;;;;1.02;0.93;;;;;;;20.65;47.90;96154.44;10322488;28;20042;-75
2023/03/30 14:54:53;;;;;;;1.10;1.00;;;;;;;20.64;47.85;96136.63;10336136;28;20042;-75
2023/03/30 15:00:23;;;;;;;0.82;0.82;;;;;;;20.64;47.81;96150.97;10336234;28;20089;-76
2023/03/30 15:05:44;;;;;;;1.38;1.00;;;;;;;20.64;47.89;96155.56;10336443;28;20053;-75
2023/03/30 15:11:14;;;;;;;0.70;0.70;;;;;;;20.63;48.04;96162.13;10335349;28;20039;-75
2023/03/30 15:16:34;;;;;;;0.80;0.70;;;;;;;20.62;47.92;96152.44;10335203;28;20487;-75
2023/03/30 15:21:57;;;;;;;1.30;0.80;;;;;;;20.63;47.83;96140.47;10336439;28;20042;-76
2023/03/30 15:27:17;;;;;;;1.65;0.90;;;;;;;20.62;48.07;96128.06;10346736;28;20054;-75
2023/03/30 15:32:40;;;;;;;2.67;1.00;;;;;;;20.63;48.13;96132.38;10343269;28;20046;-78
2023/03/30 15:38:02;;;;;;;2.67;0.70;;;;;;;20.63;48.16;96137.78;10336889;28;20046;-76
2023/03/30 15:43:28;;;;;;;2.55;0.93;;;;;;;20.63;47.91;96124.25;10337826;28;20525;-77
2023/03/30 15:48:50;;;;;;;1.92;1.00;;;;;;;20.62;47.93;96128.06;10325504;28;20042;-75
2023/03/30 15:54:35;;;;;;;1.38;1.00;;;;;;;20.61;48.18;96129.22;10324234;28;20097;-75
2023/03/30 16:00:00;;;;;;;1.45;1.02;;;;;;;20.60;47.95;96125.72;10353139;28;20042;-74
2023/03/30 16:05:21;;;;;;;2.75;1.00;;;;;;;20.60;47.94;96141.16;10323030;28;20112;-75
2023/03/30 16:10:40;;;;;;;1.42;1.02;;;;;;;20.58;48.02;96144.22;10390553;28;20044;-75
2023/03/30 16:16:00;;;;;;;1.70;1.17;;;;;;;20.60;48.07;96168.22;10361858;28;20042;-75
2023/03/30 16:21:23;;;;;;;2.42;1.20;;;;;;;20.59;48.06;96155.81;10316284;28;20088;-76
2023/03/30 16:26:42;;;;;;;1.50;1.05;;;;;;;20.57;48.10;96148.03;10340513;28;20050;-77
2023/03/30 16:32:02;;;;;;;1.02;0.95;;;;;;;20.56;48.03;96141.03;10305600;28;20096;-78
2023/03/30 16:37:21;;;;;;;1.70;1.10;;;;;;;20.55;47.92;96115.13;10306245;28;20039;-77
2023/03/30 16:42:40;;;;;;;1.52;1.20;;;;;;;20.54;48.16;96121.66;10320370;28;20426;-74
2023/03/30 16:48:00;;;;;;;1.75;1.17;;;;;;;20.53;48.15;96136.34;10333688;28;20517;-75
2023/03/30 16:53:19;;;;;;;1.42;1.10;;;;;;;20.52;47.85;96132.84;10334415;28;20046;-75
2023/03/30 16:58:39;;;;;;;2.25;0.98;;;;;;;20.51;48.04;96122.38;10320162;28;20513;-74
2023/03/30 17:04:00;;;;;;;1.95;1.30;;;;;;;20.52;47.93;96156.38;10322783;28;20050;-72
2023/03/30 17:09:20;;;;;;;1.67;1.20;;;;;;;20.50;47.92;96172.19;10313761;28;20402;-73
2023/03/30 17:14:39;;;;;;;2.20;1.20;;;;;;;20.48;47.94;96161.72;10326631;28;20050;-73
2023/03/30 17:20:31;;;;;;;1.70;1.20;;;;;;;20.48;48.10;96155.50;10326935;28;20042;-73
2023/03/30 17:25:52;;;;;;;2.92;1.30;;;;;;;20.47;48.01;96164.78;10326320;28;20423;-73
2023/03/30 17:31:17;;;;;;;3.63;1.40;;;;;;;20.47;47.92;96167.47;10325752;28;20057;-72
2023/03/30 17:36:37;;;;;;;1.98;1.33;;;;;;;20.44;47.96;96163.53;10325865;28;20049;-72
2023/03/30 17:41:58;;;;;;;2.92;1.55;;;;;;;20.43;47.96;96147.66;10325407;28;20038;-72
2023/03/30 17:47:18;;;;;;;2.58;1.40;;;;;;;20.43;47.97;96155.78;10353978;28;20454;-72
2023/03/30 17:52:37;;;;;;;3.75;1.30;;;;;;;20.42;48.05;96152.25;10340436;28;20046;-73
2023/03/30 17:57:57;;;;;;;1.33;1.10;;;;;;;20.42;47.93;96171.19;10324844;28;20038;-72
2023/03/30 18:03:19;;;;;;;2.88;1.30;;;;;;;20.41;48.05;96198.63;10339186;28;20046;-72
2023/03/30 18:08:39;;;;;;;2.05;1.17;;;;;;;20.41;47.95;96285.97;10326704;28;20050;-72
2023/03/30 18:13:59;;;;;;;1.70;1.40;;;;;;;20.41;48.29;96313.03;10325446;28;20053;-72
2023/03/30 18:19:19;;;;;;;3.40;1.00;;;;;;;20.37;46.68;96300.53;10325475;28;20050;-72
2023/03/30 18:24:39;;;;;;;1.95;1.20;;;;;;;20.32;47.27;96309.66;10324074;28;20042;-72
2023/03/30 18:29:58;;;;;;;1.70;0.98;;;;;;;20.31;48.12;96295.34;10299035;28;20393;-72
2023/03/30 18:35:18;;;;;;;2.10;1.13;;;;;;;20.33;48.13;96274.16;10310688;28;20105;-73
2023/03/30 18:40:40;;;;;;;1.83;1.17;;;;;;;20.33;48.05;96278.78;10283736;28;20042;-74
2023/03/30 18:46:00;;;;;;;2.83;1.42;;;;;;;20.32;48.14;96285.31;10310061;28;20051;-72
2023/03/30 18:51:20;;;;;;;3.90;1.52;;;;;;;20.30;48.23;96277.53;10309759;28;20098;-72
2023/03/30 18:56:40;;;;;;;2.50;1.48;;;;;;;20.29;48.21;96267.84;10296526;28;20406;-73
2023/03/30 19:01:59;;;;;;;2.38;1.38;;;;;;;20.28;48.12;96255.44;10310431;28;20058;-72
2023/03/30 19:07:19;;;;;;;2.67;1.20;;;;;;;20.28;48.25;96274.38;10309100;28;20042;-72
2023/03/30 19:12:39;;;;;;;2.25;1.38;;;;;;;20.28;48.29;96277.09;10310449;28;20039;-72
2023/03/30 19:18:03;;;;;;;3.50;1.55;;;;;;;20.26;48.26;96279.34;10295267;28;20050;-72
2023/03/30 19:23:22;;;;;;;3.40;1.45;;;;;;;20.26;48.25;96292.09;10308686;28;20050;-72
2023/03/30 19:28:42;;;;;;;5.82;2.00;;;;;;;20.24;48.19;96295.13;10311273;28;20058;-72
2023/03/30 19:34:01;;;;;;;3.65;1.90;;;;;;;20.24;48.27;96294.34;10321084;28;20042;-73
2023/03/30 19:39:21;;;;;;;5.03;1.90;;;;;;;20.23;48.34;96300.88;10349403;28;20041;-72
2023/03/30 19:44:40;;;;;;;3.58;1.70;;;;;;;20.23;48.28;96303.56;10320839;28;20049;-72
2023/03/30 19:50:01;;;;;;;4.38;1.85;;;;;;;20.22;48.32;96299.31;10334236;28;20049;-73
2023/03/30 19:55:21;;;;;;;6.38;2.38;;;;;;;20.19;48.41;96308.91;10334193;28;20043;-73
2023/03/30 20:00:42;;;;;;;8.43;2.28;;;;;;;20.20;48.40;96306.97;10320171;28;20074;-72
2023/03/30 20:06:02;;;;;;;7.43;2.72;;;;;;;20.18;48.61;96304.59;10334039;28;20060;-73
2023/03/30 20:11:22;;;;;;;9.05;2.88;;;;;;;20.18;48.40;96320.06;10319898;28;20042;-73
2023/03/30 20:16:41;;;;;;;5.85;2.58;;;;;;;20.16;48.60;96312.28;10320620;28;20046;-77
2023/03/30 20:22:00;;;;;;;10.75;2.88;;;;;;;20.15;48.51;96319.59;10319553;28;20053;-74
2023/03/30 20:27:20;;;;;;;5.50;2.63;;;;;;;20.13;48.64;96318.34;10342678;28;20059;-73
2023/03/30 20:32:40;;;;;;;5.75;2.53;;;;;;;20.13;48.50;96302.13;10332828;28;20088;-72
2023/03/30 20:38:01;;;;;;;7.72;3.15;;;;;;;20.12;48.82;96316.78;10346793;28;20403;-72
2023/03/30 20:43:24;;;;;;;9.30;3.60;;;;;;;20.11;48.75;96316.00;10332513;28;20058;-72
2023/03/30 20:48:52;;;;;;;9.07;3.03;;;;;;;20.10;49.10;96319.03;10332505;28;20050;-72
2023/03/30 20:54:12;;;;;;;4.97;2.72;;;;;;;20.10;49.25;96317.13;10319648;28;20050;-72
2023/03/30 20:59:31;;;;;;;7.38;2.88;;;;;;;20.09;49.25;96317.44;10346831;28;20042;-72
2023/03/30 21:04:55;;;;;;;7.65;2.92;;;;;;;20.09;49.24;96314.75;10331873;28;20491;-72
2023/03/30 21:10:15;;;;;;;6.30;2.55;;;;;;;20.06;49.29;96313.53;10346249;28;20042;-72
2023/03/30 21:15:34;;;;;;;5.20;2.42;;;;;;;20.05;49.42;96309.25;10318076;28;20434;-72
2023/03/30 21:20:54;;;;;;;5.40;2.15;;;;;;;20.05;49.33;96311.97;10318087;28;20051;-72
2023/03/30 21:26:17;;;;;;;3.53;1.95;;;;;;;20.05;49.17;96300.34;10316124;28;20418;-72
2023/03/30 21:31:36;;;;;;;5.18;2.10;;;;;;;20.03;49.11;96297.19;10331824;28;20049;-73
2023/03/30 21:36:56;;;;;;;5.70;2.08;;;;;;;20.01;49.06;96304.84;10346115;28;20403;-72
2023/03/30 21:42:16;;;;;;;5.28;2.20;;;;;;;20.00;49.09;96309.47;10304938;28;20495;-76
2023/03/30 21:47:36;;;;;;;4.18;2.08;;;;;;;19.99;48.89;96315.22;10331444;28;20042;-76
2023/03/30 21:52:57;;;;;;;5.07;2.25;;;;;;;19.98;48.67;96303.63;10324338;28;20118;-76
2023/03/30 21:58:17;;;;;;;4.97;1.80;;;;;;;19.97;48.70;96309.34;10338639;28;20054;-76
2023/03/30 22:03:36;;;;;;;3.78;2.05;;;;;;;19.96;48.67;96305.88;10311360;28;20458;-76
2023/03/30 22:08:56;;;;;;;3.30;1.77;;;;;;;19.94;48.70;96305.41;10352900;28;20053;-76
2023/03/30 22:14:15;;;;;;;2.72;1.58;;;;;;;19.94;48.56;96300.00;10338026;28;20065;-76
2023/03/30 22:19:35;;;;;;;5.13;2.08;;;;;;;19.94;48.68;96297.31;10324133;28;20052;-76
2023/03/30 22:24:55;;;;;;;2.53;1.67;;;;;;;19.93;48.60;96287.59;10337648;28;20042;-76
2023/03/30 22:30:15;;;;;;;2.83;1.73;;;;;;;19.91;48.51;96284.47;10324907;28;20089;-76
2023/03/30 22:35:39;;;;;;;3.00;1.88;;;;;;;19.90;48.41;96280.97;10323688;28;20042;-76
2023/03/30 22:41:03;;;;;;;3.00;1.50;;;;;;;19.89;48.52;96282.09;10323532;28;20038;-76
2023/03/30 22:46:24;;;;;;;3.85;1.77;;;;;;;19.88;48.45;96285.16;10336927;28;20573;-76
2023/03/30 22:51:49;;;;;;;3.50;1.70;;;;;;;19.87;48.39;96278.94;10336524;28;20097;-76
2023/03/30 22:57:08;;;;;;;4.15;1.60;;;;;;;19.86;48.19;96274.66;10323575;28;20046;-76
2023/03/30 23:02:29;;;;;;;2.30;1.48;;;;;;;19.85;48.42;96272.31;10350584;28;20053;-75
2023/03/30 23:07:49;;;;;;;4.22;1.67;;;;;;;19.84;48.25;96273.44;10350677;28;20096;-75
2023/03/30 23:13:09;;;;;;;1.85;1.23;;;;;;;19.82;48.26;96262.97;10322194;28;20038;-76
2023/03/30 23:18:29;;;;;;;2.47;1.63;;;;;;;19.82;48.33;96265.66;10322109;28;20410;-75
2023/03/30 23:23:49;;;;;;;2.92;1.60;;;;;;;19.81;48.20;96263.28;10335375;28;20046;-75
2023/03/30 23:29:10;;;;;;;2.42;1.58;;;;;;;19.81;48.26;96260.59;10311926;28;20054;-75
2023/03/30 23:34:30;;;;;;;3.15;1.42;;;;;;;19.79;48.28;96249.34;10321335;28;20038;-76
2023/03/30 23:39:50;;;;;;;2.03;1.27;;;;;;;19.78;48.16;96245.03;10335022;28;20097;-75
2023/03/30 23:45:11;;;;;;;2.58;1.30;;;;;;;19.77;48.15;96241.56;10308258;28;20047;-72
2023/03/30 23:50:31;;;;;;;2.10;1.20;;;;;;;19.76;48.25;96237.28;10334265;28;20065;-72
2023/03/30 23:55:51;;;;;;;2.78;1.60;;;;;;;19.73;48.12;96230.63;10334194;28;20046;-72
